sensor_id;sensor_type;location;lat;lon;timestamp;temperature;humidity
30459;DHT22;17254;50.976;7.034;2022-08-05T00:00:22;21.90;99.90
30459;DHT22;17254;50.976;7.034;2022-08-05T00:00:53;21.90;99.90
30459;DHT22;17254;50.976;7.034;2022-08-05T00:01:24;21.90;99.90
30459;DHT22;17254;50.976;7.034;2022-08-05T00:01:56;21.90;99.90
30459;DHT22;17254;50.976;7.034;2022-08-05T00:02:27;21.90;99.90
30459;DHT22;17254;50.976;7.034;2022-08-05T00:02:58;21.80;99.90
30459;DHT22;17254;50.976;7.034;2022-08-05T00:03:30;21.80;99.90
30459;DHT22;17254;50.976;7.034;2022-08-05T00:04:01;21.90;99.90
30459;DHT22;17254;50.976;7.034;2022-08-05T00:04:33;21.90;99.90
30459;DHT22;17254;50.976;7.034;2022-08-05T00:05:05;21.90;99.90
30459;DHT22;17254;50.976;7.034;2022-08-05T00:05:36;21.90;99.90
30459;DHT22;17254;50.976;7.034;2022-08-05T00:06:09;21.90;99.90
30459;DHT22;17254;50.976;7.034;2022-08-05T00:06:40;21.90;99.90
30459;DHT22;17254;50.976;7.034;2022-08-05T00:07:11;21.90;99.90
30459;DHT22;17254;50.976;7.034;2022-08-05T00:07:43;21.90;99.90
30459;DHT22;17254;50.976;7.034;2022-08-05T00:08:14;21.90;99.90
30459;DHT22;17254;50.976;7.034;2022-08-05T00:08:45;21.90;99.90
30459;DHT22;17254;50.976;7.034;2022-08-05T00:09:16;21.90;99.90
30459;DHT22;17254;50.976;7.034;2022-08-05T00:09:48;21.90;99.90
30459;DHT22;17254;50.976;7.034;2022-08-05T00:10:19;21.90;99.90
30459;DHT22;17254;50.976;7.034;2022-08-05T00:10:52;21.90;99.90
30459;DHT22;17254;50.976;7.034;2022-08-05T00:11:23;21.90;99.90
30459;DHT22;17254;50.976;7.034;2022-08-05T00:11:55;21.80;99.90
30459;DHT22;17254;50.976;7.034;2022-08-05T00:12:26;21.80;99.90
30459;DHT22;17254;50.976;7.034;2022-08-05T00:12:57;21.80;99.90
30459;DHT22;17254;50.976;7.034;2022-08-05T00:13:31;21.80;99.90
30459;DHT22;17254;50.976;7.034;2022-08-05T00:14:03;21.70;99.90
30459;DHT22;17254;50.976;7.034;2022-08-05T00:14:34;21.70;99.90
30459;DHT22;17254;50.976;7.034;2022-08-05T00:15:06;21.70;99.90
30459;DHT22;17254;50.976;7.034;2022-08-05T00:15:41;21.70;99.90
30459;DHT22;17254;50.976;7.034;2022-08-05T00:16:15;21.70;99.90
30459;DHT22;17254;50.976;7.034;2022-08-05T00:16:46;21.70;99.90
30459;DHT22;17254;50.976;7.034;2022-08-05T00:17:18;21.70;99.90
30459;DHT22;17254;50.976;7.034;2022-08-05T00:17:49;21.70;99.90
30459;DHT22;17254;50.976;7.034;2022-08-05T00:18:20;21.70;99.90
30459;DHT22;17254;50.976;7.034;2022-08-05T00:18:51;21.60;99.90
30459;DHT22;17254;50.976;7.034;2022-08-05T00:19:23;21.60;99.90
30459;DHT22;17254;50.976;7.034;2022-08-05T00:19:54;21.60;99.90
30459;DHT22;17254;50.976;7.034;2022-08-05T00:20:25;21.60;99.90
30459;DHT22;17254;50.976;7.034;2022-08-05T00:20:57;21.60;99.90
30459;DHT22;17254;50.976;7.034;2022-08-05T00:21:28;21.60;99.90
30459;DHT22;17254;50.976;7.034;2022-08-05T00:22:00;21.60;99.90
30459;DHT22;17254;50.976;7.034;2022-08-05T00:22:32;21.50;99.90
30459;DHT22;17254;50.976;7.034;2022-08-05T00:23:03;21.50;99.90
30459;DHT22;17254;50.976;7.034;2022-08-05T00:23:34;21.50;99.90
30459;DHT22;17254;50.976;7.034;2022-08-05T00:24:06;21.50;99.90
30459;DHT22;17254;50.976;7.034;2022-08-05T00:24:37;21.50;99.90
30459;DHT22;17254;50.976;7.034;2022-08-05T00:25:09;21.50;99.90
30459;DHT22;17254;50.976;7.034;2022-08-05T00:25:40;21.40;99.90
30459;DHT22;17254;50.976;7.034;2022-08-05T00:26:11;21.50;99.90
30459;DHT22;17254;50.976;7.034;2022-08-05T00:26:43;21.40;99.90
30459;DHT22;17254;50.976;7.034;2022-08-05T00:27:14;21.40;99.90
30459;DHT22;17254;50.976;7.034;2022-08-05T00:27:45;21.40;99.90
30459;DHT22;17254;50.976;7.034;2022-08-05T00:28:17;21.40;99.90
30459;DHT22;17254;50.976;7.034;2022-08-05T00:28:50;21.30;99.90
30459;DHT22;17254;50.976;7.034;2022-08-05T00:29:21;21.40;99.90
30459;DHT22;17254;50.976;7.034;2022-08-05T00:29:53;21.30;99.90
30459;DHT22;17254;50.976;7.034;2022-08-05T00:30:24;21.30;99.90
30459;DHT22;17254;50.976;7.034;2022-08-05T00:30:55;21.30;99.90
30459;DHT22;17254;50.976;7.034;2022-08-05T00:31:26;21.30;99.90
30459;DHT22;17254;50.976;7.034;2022-08-05T00:31:58;21.30;99.90
30459;DHT22;17254;50.976;7.034;2022-08-05T00:32:29;21.30;99.90
30459;DHT22;17254;50.976;7.034;2022-08-05T00:33:00;21.20;99.90
30459;DHT22;17254;50.976;7.034;2022-08-05T00:33:32;21.20;99.90
30459;DHT22;17254;50.976;7.034;2022-08-05T00:34:04;21.20;99.90
30459;DHT22;17254;50.976;7.034;2022-08-05T00:34:35;21.20;99.90
30459;DHT22;17254;50.976;7.034;2022-08-05T00:35:07;21.20;99.90
30459;DHT22;17254;50.976;7.034;2022-08-05T00:35:39;21.20;99.90
30459;DHT22;17254;50.976;7.034;2022-08-05T00:36:10;21.20;99.90
30459;DHT22;17254;50.976;7.034;2022-08-05T00:36:41;21.20;99.90
30459;DHT22;17254;50.976;7.034;2022-08-05T00:37:12;21.20;99.90
30459;DHT22;17254;50.976;7.034;2022-08-05T00:37:44;21.20;99.90
30459;DHT22;17254;50.976;7.034;2022-08-05T00:38:15;21.20;99.90
30459;DHT22;17254;50.976;7.034;2022-08-05T00:38:46;21.20;99.90
30459;DHT22;17254;50.976;7.034;2022-08-05T00:39:18;21.10;99.90
30459;DHT22;17254;50.976;7.034;2022-08-05T00:39:49;21.10;99.90
30459;DHT22;17254;50.976;7.034;2022-08-05T00:40:21;21.10;99.90
30459;DHT22;17254;50.976;7.034;2022-08-05T00:40:55;21.20;99.90
30459;DHT22;17254;50.976;7.034;2022-08-05T00:41:27;21.10;99.90
30459;DHT22;17254;50.976;7.034;2022-08-05T00:41:59;21.10;99.90
30459;DHT22;17254;50.976;7.034;2022-08-05T00:42:32;21.10;99.90
30459;DHT22;17254;50.976;7.034;2022-08-05T00:43:04;21.10;99.90
30459;DHT22;17254;50.976;7.034;2022-08-05T00:43:35;21.00;99.90
30459;DHT22;17254;50.976;7.034;2022-08-05T00:44:08;21.00;99.90
30459;DHT22;17254;50.976;7.034;2022-08-05T00:44:39;20.90;99.90
30459;DHT22;17254;50.976;7.034;2022-08-05T00:45:10;21.00;99.90
30459;DHT22;17254;50.976;7.034;2022-08-05T00:45:43;21.00;99.90
30459;DHT22;17254;50.976;7.034;2022-08-05T00:46:14;21.00;99.90
30459;DHT22;17254;50.976;7.034;2022-08-05T00:46:45;21.00;99.90
30459;DHT22;17254;50.976;7.034;2022-08-05T00:47:21;21.10;99.90
30459;DHT22;17254;50.976;7.034;2022-08-05T00:47:52;21.10;99.90
30459;DHT22;17254;50.976;7.034;2022-08-05T00:48:23;21.10;99.90
30459;DHT22;17254;50.976;7.034;2022-08-05T00:48:55;21.10;99.90
30459;DHT22;17254;50.976;7.034;2022-08-05T00:49:26;21.10;99.90
30459;DHT22;17254;50.976;7.034;2022-08-05T00:49:57;21.10;99.90
30459;DHT22;17254;50.976;7.034;2022-08-05T00:50:29;21.10;99.90
30459;DHT22;17254;50.976;7.034;2022-08-05T00:51:00;21.20;99.90
30459;DHT22;17254;50.976;7.034;2022-08-05T00:51:31;21.20;99.90
30459;DHT22;17254;50.976;7.034;2022-08-05T00:52:03;21.10;99.90
30459;DHT22;17254;50.976;7.034;2022-08-05T00:52:34;21.10;99.90
30459;DHT22;17254;50.976;7.034;2022-08-05T00:53:06;21.10;99.90
30459;DHT22;17254;50.976;7.034;2022-08-05T00:53:41;21.10;99.90
30459;DHT22;17254;50.976;7.034;2022-08-05T00:54:12;21.00;99.90
30459;DHT22;17254;50.976;7.034;2022-08-05T00:54:43;21.00;99.90
30459;DHT22;17254;50.976;7.034;2022-08-05T00:55:15;21.10;99.90
30459;DHT22;17254;50.976;7.034;2022-08-05T00:55:47;21.20;99.90
30459;DHT22;17254;50.976;7.034;2022-08-05T00:56:18;21.20;99.90
30459;DHT22;17254;50.976;7.034;2022-08-05T00:56:50;21.30;99.90
30459;DHT22;17254;50.976;7.034;2022-08-05T00:57:21;21.30;99.90
30459;DHT22;17254;50.976;7.034;2022-08-05T00:57:52;21.20;99.90
30459;DHT22;17254;50.976;7.034;2022-08-05T00:58:23;21.20;99.90
30459;DHT22;17254;50.976;7.034;2022-08-05T00:58:58;21.30;99.90
30459;DHT22;17254;50.976;7.034;2022-08-05T00:59:31;21.30;99.90
30459;DHT22;17254;50.976;7.034;2022-08-05T01:00:03;21.20;99.90
30459;DHT22;17254;50.976;7.034;2022-08-05T01:00:34;21.20;99.90
30459;DHT22;17254;50.976;7.034;2022-08-05T01:01:06;21.10;99.90
30459;DHT22;17254;50.976;7.034;2022-08-05T01:01:39;21.20;99.90
30459;DHT22;17254;50.976;7.034;2022-08-05T01:02:11;21.20;99.90
30459;DHT22;17254;50.976;7.034;2022-08-05T01:02:42;21.20;99.90
30459;DHT22;17254;50.976;7.034;2022-08-05T01:03:13;21.20;99.90
30459;DHT22;17254;50.976;7.034;2022-08-05T01:03:44;21.30;99.90
30459;DHT22;17254;50.976;7.034;2022-08-05T01:04:19;21.20;99.90
30459;DHT22;17254;50.976;7.034;2022-08-05T01:04:50;21.20;99.90
30459;DHT22;17254;50.976;7.034;2022-08-05T01:05:22;21.20;99.90
30459;DHT22;17254;50.976;7.034;2022-08-05T01:05:54;21.10;99.90
30459;DHT22;17254;50.976;7.034;2022-08-05T01:06:25;21.00;99.90
30459;DHT22;17254;50.976;7.034;2022-08-05T01:06:56;21.00;99.90
30459;DHT22;17254;50.976;7.034;2022-08-05T01:07:28;21.00;99.90
30459;DHT22;17254;50.976;7.034;2022-08-05T01:07:59;21.10;99.90
30459;DHT22;17254;50.976;7.034;2022-08-05T01:08:30;21.10;99.90
30459;DHT22;17254;50.976;7.034;2022-08-05T01:09:02;21.00;99.90
30459;DHT22;17254;50.976;7.034;2022-08-05T01:09:35;21.00;99.90
30459;DHT22;17254;50.976;7.034;2022-08-05T01:10:09;20.90;99.90
30459;DHT22;17254;50.976;7.034;2022-08-05T01:10:50;20.90;99.90
30459;DHT22;17254;50.976;7.034;2022-08-05T01:11:27;20.80;99.90
30459;DHT22;17254;50.976;7.034;2022-08-05T01:12:05;20.70;99.90
30459;DHT22;17254;50.976;7.034;2022-08-05T01:12:37;20.70;99.90
30459;DHT22;17254;50.976;7.034;2022-08-05T01:13:15;20.60;99.90
30459;DHT22;17254;50.976;7.034;2022-08-05T01:13:55;20.60;99.90
30459;DHT22;17254;50.976;7.034;2022-08-05T01:14:35;20.60;99.90
30459;DHT22;17254;50.976;7.034;2022-08-05T01:15:10;20.60;99.90
30459;DHT22;17254;50.976;7.034;2022-08-05T01:15:47;20.70;99.90
30459;DHT22;17254;50.976;7.034;2022-08-05T01:16:26;20.70;99.90
30459;DHT22;17254;50.976;7.034;2022-08-05T01:17:03;20.70;99.90
30459;DHT22;17254;50.976;7.034;2022-08-05T01:17:39;20.70;99.90
30459;DHT22;17254;50.976;7.034;2022-08-05T01:18:13;20.60;99.90
30459;DHT22;17254;50.976;7.034;2022-08-05T01:18:51;20.70;99.90
30459;DHT22;17254;50.976;7.034;2022-08-05T01:19:33;20.70;99.90
30459;DHT22;17254;50.976;7.034;2022-08-05T01:20:15;20.70;99.90
30459;DHT22;17254;50.976;7.034;2022-08-05T01:20:52;20.70;99.90
30459;DHT22;17254;50.976;7.034;2022-08-05T01:21:51;20.60;99.90
30459;DHT22;17254;50.976;7.034;2022-08-05T01:22:39;20.50;99.90
30459;DHT22;17254;50.976;7.034;2022-08-05T01:23:15;20.50;99.90
30459;DHT22;17254;50.976;7.034;2022-08-05T01:24:03;20.50;99.90
30459;DHT22;17254;50.976;7.034;2022-08-05T01:24:50;20.50;99.90
30459;DHT22;17254;50.976;7.034;2022-08-05T01:25:42;20.50;99.90
30459;DHT22;17254;50.976;7.034;2022-08-05T01:26:34;20.40;99.90
30459;DHT22;17254;50.976;7.034;2022-08-05T01:27:17;20.40;99.90
30459;DHT22;17254;50.976;7.034;2022-08-05T01:28:12;20.50;99.90
30459;DHT22;17254;50.976;7.034;2022-08-05T01:28:47;20.70;99.90
30459;DHT22;17254;50.976;7.034;2022-08-05T01:29:26;20.70;99.90
30459;DHT22;17254;50.976;7.034;2022-08-05T01:30:02;20.70;99.90
30459;DHT22;17254;50.976;7.034;2022-08-05T01:30:38;20.70;99.90
30459;DHT22;17254;50.976;7.034;2022-08-05T01:31:15;20.80;99.90
30459;DHT22;17254;50.976;7.034;2022-08-05T01:31:54;20.80;99.90
30459;DHT22;17254;50.976;7.034;2022-08-05T01:32:32;20.90;99.90
30459;DHT22;17254;50.976;7.034;2022-08-05T01:33:07;20.80;99.90
30459;DHT22;17254;50.976;7.034;2022-08-05T01:33:42;20.70;99.90
30459;DHT22;17254;50.976;7.034;2022-08-05T01:34:21;20.70;99.90
30459;DHT22;17254;50.976;7.034;2022-08-05T01:34:57;20.70;99.90
30459;DHT22;17254;50.976;7.034;2022-08-05T01:35:30;20.60;99.90
30459;DHT22;17254;50.976;7.034;2022-08-05T01:36:07;20.60;99.90
30459;DHT22;17254;50.976;7.034;2022-08-05T01:36:48;20.60;99.90
30459;DHT22;17254;50.976;7.034;2022-08-05T01:37:28;20.60;99.90
30459;DHT22;17254;50.976;7.034;2022-08-05T01:38:03;20.60;99.90
30459;DHT22;17254;50.976;7.034;2022-08-05T01:38:36;20.60;99.90
30459;DHT22;17254;50.976;7.034;2022-08-05T01:39:09;20.50;99.90
30459;DHT22;17254;50.976;7.034;2022-08-05T01:39:43;20.60;99.90
30459;DHT22;17254;50.976;7.034;2022-08-05T01:40:22;20.50;99.90
30459;DHT22;17254;50.976;7.034;2022-08-05T01:40:58;20.50;99.90
30459;DHT22;17254;50.976;7.034;2022-08-05T01:41:33;20.60;99.90
30459;DHT22;17254;50.976;7.034;2022-08-05T01:42:08;20.60;99.90
30459;DHT22;17254;50.976;7.034;2022-08-05T01:42:42;20.70;99.90
30459;DHT22;17254;50.976;7.034;2022-08-05T01:43:16;20.70;99.90
30459;DHT22;17254;50.976;7.034;2022-08-05T01:43:49;20.70;99.90
30459;DHT22;17254;50.976;7.034;2022-08-05T01:44:21;20.80;99.90
30459;DHT22;17254;50.976;7.034;2022-08-05T01:44:55;20.80;99.90
30459;DHT22;17254;50.976;7.034;2022-08-05T01:45:28;20.90;99.90
30459;DHT22;17254;50.976;7.034;2022-08-05T01:46:01;20.90;99.90
30459;DHT22;17254;50.976;7.034;2022-08-05T01:46:34;20.90;99.90
30459;DHT22;17254;50.976;7.034;2022-08-05T01:47:08;20.90;99.90
30459;DHT22;17254;50.976;7.034;2022-08-05T01:47:41;20.90;99.90
30459;DHT22;17254;50.976;7.034;2022-08-05T01:48:14;20.80;99.90
30459;DHT22;17254;50.976;7.034;2022-08-05T01:48:47;20.80;99.90
30459;DHT22;17254;50.976;7.034;2022-08-05T01:49:22;20.90;99.90
30459;DHT22;17254;50.976;7.034;2022-08-05T01:49:57;20.90;99.90
30459;DHT22;17254;50.976;7.034;2022-08-05T01:50:32;20.90;99.90
30459;DHT22;17254;50.976;7.034;2022-08-05T01:51:08;20.90;99.90
30459;DHT22;17254;50.976;7.034;2022-08-05T01:51:40;20.90;99.90
30459;DHT22;17254;50.976;7.034;2022-08-05T01:52:13;20.90;99.90
30459;DHT22;17254;50.976;7.034;2022-08-05T01:52:46;20.90;99.90
30459;DHT22;17254;50.976;7.034;2022-08-05T01:53:20;20.90;99.90
30459;DHT22;17254;50.976;7.034;2022-08-05T01:53:54;20.90;99.90
30459;DHT22;17254;50.976;7.034;2022-08-05T01:54:29;20.80;99.90
30459;DHT22;17254;50.976;7.034;2022-08-05T01:55:05;20.90;99.90
30459;DHT22;17254;50.976;7.034;2022-08-05T01:55:39;20.80;99.90
30459;DHT22;17254;50.976;7.034;2022-08-05T01:56:13;20.80;99.90
30459;DHT22;17254;50.976;7.034;2022-08-05T01:56:49;20.80;99.90
30459;DHT22;17254;50.976;7.034;2022-08-05T01:57:25;20.80;99.90
30459;DHT22;17254;50.976;7.034;2022-08-05T01:57:58;20.80;99.90
30459;DHT22;17254;50.976;7.034;2022-08-05T01:58:33;20.70;99.90
30459;DHT22;17254;50.976;7.034;2022-08-05T01:59:07;20.70;99.90
30459;DHT22;17254;50.976;7.034;2022-08-05T01:59:41;20.70;99.90
30459;DHT22;17254;50.976;7.034;2022-08-05T02:00:14;20.70;99.90
30459;DHT22;17254;50.976;7.034;2022-08-05T02:00:49;20.70;99.90
30459;DHT22;17254;50.976;7.034;2022-08-05T02:01:21;20.60;99.90
30459;DHT22;17254;50.976;7.034;2022-08-05T02:01:55;20.60;99.90
30459;DHT22;17254;50.976;7.034;2022-08-05T02:02:28;20.60;99.90
30459;DHT22;17254;50.976;7.034;2022-08-05T02:03:03;20.60;99.90
30459;DHT22;17254;50.976;7.034;2022-08-05T02:03:39;20.60;99.90
30459;DHT22;17254;50.976;7.034;2022-08-05T02:04:14;20.60;99.90
30459;DHT22;17254;50.976;7.034;2022-08-05T02:04:47;20.60;99.90
30459;DHT22;17254;50.976;7.034;2022-08-05T02:05:22;20.50;99.90
30459;DHT22;17254;50.976;7.034;2022-08-05T02:05:59;20.50;99.90
30459;DHT22;17254;50.976;7.034;2022-08-05T02:06:33;20.50;99.90
30459;DHT22;17254;50.976;7.034;2022-08-05T02:07:04;20.50;99.90
30459;DHT22;17254;50.976;7.034;2022-08-05T02:07:35;20.50;99.90
30459;DHT22;17254;50.976;7.034;2022-08-05T02:08:07;20.50;99.90
30459;DHT22;17254;50.976;7.034;2022-08-05T02:08:39;20.50;99.90
30459;DHT22;17254;50.976;7.034;2022-08-05T02:09:10;20.50;99.90
30459;DHT22;17254;50.976;7.034;2022-08-05T02:09:42;20.50;99.90
30459;DHT22;17254;50.976;7.034;2022-08-05T02:10:15;20.50;99.90
30459;DHT22;17254;50.976;7.034;2022-08-05T02:10:49;20.50;99.90
30459;DHT22;17254;50.976;7.034;2022-08-05T02:11:22;20.40;99.90
30459;DHT22;17254;50.976;7.034;2022-08-05T02:12:00;20.40;99.90
30459;DHT22;17254;50.976;7.034;2022-08-05T02:12:37;20.40;99.90
30459;DHT22;17254;50.976;7.034;2022-08-05T02:13:14;20.40;99.90
30459;DHT22;17254;50.976;7.034;2022-08-05T02:13:52;20.40;99.90
30459;DHT22;17254;50.976;7.034;2022-08-05T02:14:32;20.40;99.90
30459;DHT22;17254;50.976;7.034;2022-08-05T02:15:07;20.30;99.90
30459;DHT22;17254;50.976;7.034;2022-08-05T02:15:43;20.30;99.90
30459;DHT22;17254;50.976;7.034;2022-08-05T02:16:20;20.30;99.90
30459;DHT22;17254;50.976;7.034;2022-08-05T02:16:54;20.30;99.90
30459;DHT22;17254;50.976;7.034;2022-08-05T02:17:29;20.30;99.90
30459;DHT22;17254;50.976;7.034;2022-08-05T02:18:04;20.30;99.90
30459;DHT22;17254;50.976;7.034;2022-08-05T02:18:43;20.20;99.90
30459;DHT22;17254;50.976;7.034;2022-08-05T02:19:27;20.20;99.90
30459;DHT22;17254;50.976;7.034;2022-08-05T02:20:05;20.20;99.90
30459;DHT22;17254;50.976;7.034;2022-08-05T02:20:43;20.20;99.90
30459;DHT22;17254;50.976;7.034;2022-08-05T02:21:21;20.20;99.90
30459;DHT22;17254;50.976;7.034;2022-08-05T02:21:58;20.10;99.90
30459;DHT22;17254;50.976;7.034;2022-08-05T02:22:35;20.10;99.90
30459;DHT22;17254;50.976;7.034;2022-08-05T02:23:10;20.10;99.90
30459;DHT22;17254;50.976;7.034;2022-08-05T02:23:44;20.10;99.90
30459;DHT22;17254;50.976;7.034;2022-08-05T02:24:18;20.00;99.90
30459;DHT22;17254;50.976;7.034;2022-08-05T02:24:55;20.00;99.90
30459;DHT22;17254;50.976;7.034;2022-08-05T02:25:31;19.90;99.90
30459;DHT22;17254;50.976;7.034;2022-08-05T02:26:06;20.00;99.90
30459;DHT22;17254;50.976;7.034;2022-08-05T02:26:41;19.90;99.90
30459;DHT22;17254;50.976;7.034;2022-08-05T02:27:15;20.00;99.90
30459;DHT22;17254;50.976;7.034;2022-08-05T02:27:49;20.00;99.90
30459;DHT22;17254;50.976;7.034;2022-08-05T02:28:24;20.00;99.90
30459;DHT22;17254;50.976;7.034;2022-08-05T02:29:01;20.00;99.90
30459;DHT22;17254;50.976;7.034;2022-08-05T02:29:33;20.00;99.90
30459;DHT22;17254;50.976;7.034;2022-08-05T02:30:09;20.00;99.90
30459;DHT22;17254;50.976;7.034;2022-08-05T02:30:44;20.00;99.90
30459;DHT22;17254;50.976;7.034;2022-08-05T02:31:21;19.90;99.90
30459;DHT22;17254;50.976;7.034;2022-08-05T02:31:56;19.90;99.90
30459;DHT22;17254;50.976;7.034;2022-08-05T02:32:28;19.90;99.90
30459;DHT22;17254;50.976;7.034;2022-08-05T02:33:01;19.90;99.90
30459;DHT22;17254;50.976;7.034;2022-08-05T02:33:36;19.90;99.90
30459;DHT22;17254;50.976;7.034;2022-08-05T02:34:09;19.90;99.90
30459;DHT22;17254;50.976;7.034;2022-08-05T02:34:42;20.00;99.90
30459;DHT22;17254;50.976;7.034;2022-08-05T02:35:19;19.90;99.90
30459;DHT22;17254;50.976;7.034;2022-08-05T02:35:52;19.90;99.90
30459;DHT22;17254;50.976;7.034;2022-08-05T02:36:26;19.80;99.90
30459;DHT22;17254;50.976;7.034;2022-08-05T02:37:02;19.80;99.90
30459;DHT22;17254;50.976;7.034;2022-08-05T02:37:34;19.70;99.90
30459;DHT22;17254;50.976;7.034;2022-08-05T02:38:06;19.60;99.90
30459;DHT22;17254;50.976;7.034;2022-08-05T02:38:40;19.60;99.90
30459;DHT22;17254;50.976;7.034;2022-08-05T02:39:17;19.50;99.90
30459;DHT22;17254;50.976;7.034;2022-08-05T02:39:51;19.40;99.90
30459;DHT22;17254;50.976;7.034;2022-08-05T02:40:25;19.30;99.90
30459;DHT22;17254;50.976;7.034;2022-08-05T02:40:57;19.20;99.90
30459;DHT22;17254;50.976;7.034;2022-08-05T02:41:30;19.10;99.90
30459;DHT22;17254;50.976;7.034;2022-08-05T02:42:04;19.10;99.90
30459;DHT22;17254;50.976;7.034;2022-08-05T02:42:36;19.00;99.90
30459;DHT22;17254;50.976;7.034;2022-08-05T02:43:10;19.00;99.90
30459;DHT22;17254;50.976;7.034;2022-08-05T02:43:43;19.00;99.90
30459;DHT22;17254;50.976;7.034;2022-08-05T02:44:16;19.00;99.90
30459;DHT22;17254;50.976;7.034;2022-08-05T02:44:50;19.00;99.90
30459;DHT22;17254;50.976;7.034;2022-08-05T02:45:22;18.90;99.90
30459;DHT22;17254;50.976;7.034;2022-08-05T02:45:55;18.90;99.90
30459;DHT22;17254;50.976;7.034;2022-08-05T02:46:28;18.90;99.90
30459;DHT22;17254;50.976;7.034;2022-08-05T02:46:59;18.80;99.90
30459;DHT22;17254;50.976;7.034;2022-08-05T02:47:32;18.80;99.90
30459;DHT22;17254;50.976;7.034;2022-08-05T02:48:06;18.90;99.90
30459;DHT22;17254;50.976;7.034;2022-08-05T02:48:38;18.90;99.90
30459;DHT22;17254;50.976;7.034;2022-08-05T02:49:09;18.80;99.90
30459;DHT22;17254;50.976;7.034;2022-08-05T02:49:45;18.80;99.90
30459;DHT22;17254;50.976;7.034;2022-08-05T02:50:17;18.80;99.90
30459;DHT22;17254;50.976;7.034;2022-08-05T02:50:51;18.80;99.90
30459;DHT22;17254;50.976;7.034;2022-08-05T02:51:23;18.80;99.90
30459;DHT22;17254;50.976;7.034;2022-08-05T02:51:56;18.70;99.90
30459;DHT22;17254;50.976;7.034;2022-08-05T02:52:28;18.70;99.90
30459;DHT22;17254;50.976;7.034;2022-08-05T02:53:01;18.70;99.90
30459;DHT22;17254;50.976;7.034;2022-08-05T02:53:33;18.70;99.90
30459;DHT22;17254;50.976;7.034;2022-08-05T02:54:05;18.70;99.90
30459;DHT22;17254;50.976;7.034;2022-08-05T02:54:38;18.70;99.90
30459;DHT22;17254;50.976;7.034;2022-08-05T02:55:10;18.70;99.90
30459;DHT22;17254;50.976;7.034;2022-08-05T02:55:44;18.70;99.90
30459;DHT22;17254;50.976;7.034;2022-08-05T02:56:17;18.60;99.90
30459;DHT22;17254;50.976;7.034;2022-08-05T02:56:49;18.60;99.90
30459;DHT22;17254;50.976;7.034;2022-08-05T02:57:21;18.60;99.90
30459;DHT22;17254;50.976;7.034;2022-08-05T02:57:56;18.60;99.90
30459;DHT22;17254;50.976;7.034;2022-08-05T02:58:28;18.60;99.90
30459;DHT22;17254;50.976;7.034;2022-08-05T02:59:01;18.70;99.90
30459;DHT22;17254;50.976;7.034;2022-08-05T02:59:35;18.60;99.90
30459;DHT22;17254;50.976;7.034;2022-08-05T03:00:08;18.70;99.90
30459;DHT22;17254;50.976;7.034;2022-08-05T03:00:42;18.60;99.90
30459;DHT22;17254;50.976;7.034;2022-08-05T03:01:18;18.60;99.90
30459;DHT22;17254;50.976;7.034;2022-08-05T03:01:50;18.60;99.90
30459;DHT22;17254;50.976;7.034;2022-08-05T03:02:30;18.60;99.90
30459;DHT22;17254;50.976;7.034;2022-08-05T03:03:04;18.60;99.90
30459;DHT22;17254;50.976;7.034;2022-08-05T03:03:38;18.60;99.90
30459;DHT22;17254;50.976;7.034;2022-08-05T03:04:12;18.60;99.90
30459;DHT22;17254;50.976;7.034;2022-08-05T03:04:45;18.60;99.90
30459;DHT22;17254;50.976;7.034;2022-08-05T03:05:17;18.50;99.90
30459;DHT22;17254;50.976;7.034;2022-08-05T03:05:49;18.50;99.90
30459;DHT22;17254;50.976;7.034;2022-08-05T03:06:22;18.50;99.90
30459;DHT22;17254;50.976;7.034;2022-08-05T03:06:53;18.50;99.90
30459;DHT22;17254;50.976;7.034;2022-08-05T03:07:26;18.50;99.90
30459;DHT22;17254;50.976;7.034;2022-08-05T03:07:58;18.50;99.90
30459;DHT22;17254;50.976;7.034;2022-08-05T03:08:30;18.50;99.90
30459;DHT22;17254;50.976;7.034;2022-08-05T03:09:02;18.50;99.90
30459;DHT22;17254;50.976;7.034;2022-08-05T03:09:35;18.50;99.90
30459;DHT22;17254;50.976;7.034;2022-08-05T03:10:08;18.50;99.90
30459;DHT22;17254;50.976;7.034;2022-08-05T03:10:41;18.50;99.90
30459;DHT22;17254;50.976;7.034;2022-08-05T03:11:18;18.50;99.90
30459;DHT22;17254;50.976;7.034;2022-08-05T03:11:49;18.50;99.90
30459;DHT22;17254;50.976;7.034;2022-08-05T03:12:32;18.60;99.90
30459;DHT22;17254;50.976;7.034;2022-08-05T03:13:10;18.60;99.90
30459;DHT22;17254;50.976;7.034;2022-08-05T03:13:42;18.50;99.90
30459;DHT22;17254;50.976;7.034;2022-08-05T03:14:13;18.50;99.90
30459;DHT22;17254;50.976;7.034;2022-08-05T03:14:46;18.50;99.90
30459;DHT22;17254;50.976;7.034;2022-08-05T03:15:19;18.60;99.90
30459;DHT22;17254;50.976;7.034;2022-08-05T03:15:51;18.60;99.90
30459;DHT22;17254;50.976;7.034;2022-08-05T03:16:22;18.60;99.90
30459;DHT22;17254;50.976;7.034;2022-08-05T03:16:54;18.60;99.90
30459;DHT22;17254;50.976;7.034;2022-08-05T03:17:25;18.60;99.90
30459;DHT22;17254;50.976;7.034;2022-08-05T03:17:56;18.60;99.90
30459;DHT22;17254;50.976;7.034;2022-08-05T03:18:28;18.60;99.90
30459;DHT22;17254;50.976;7.034;2022-08-05T03:18:59;18.60;99.90
30459;DHT22;17254;50.976;7.034;2022-08-05T03:19:30;18.60;99.90
30459;DHT22;17254;50.976;7.034;2022-08-05T03:20:03;18.60;99.90
30459;DHT22;17254;50.976;7.034;2022-08-05T03:20:34;18.60;99.90
30459;DHT22;17254;50.976;7.034;2022-08-05T03:21:05;18.50;99.90
30459;DHT22;17254;50.976;7.034;2022-08-05T03:21:37;18.50;99.90
30459;DHT22;17254;50.976;7.034;2022-08-05T03:22:08;18.50;99.90
30459;DHT22;17254;50.976;7.034;2022-08-05T03:22:39;18.50;99.90
30459;DHT22;17254;50.976;7.034;2022-08-05T03:23:12;18.50;99.90
30459;DHT22;17254;50.976;7.034;2022-08-05T03:23:48;18.50;99.90
30459;DHT22;17254;50.976;7.034;2022-08-05T03:24:21;18.50;99.90
30459;DHT22;17254;50.976;7.034;2022-08-05T03:24:54;18.50;99.90
30459;DHT22;17254;50.976;7.034;2022-08-05T03:25:26;18.60;99.90
30459;DHT22;17254;50.976;7.034;2022-08-05T03:25:57;18.60;99.90
30459;DHT22;17254;50.976;7.034;2022-08-05T03:26:29;18.50;99.90
30459;DHT22;17254;50.976;7.034;2022-08-05T03:27:00;18.50;99.90
30459;DHT22;17254;50.976;7.034;2022-08-05T03:27:31;18.60;99.90
30459;DHT22;17254;50.976;7.034;2022-08-05T03:28:05;18.50;99.90
30459;DHT22;17254;50.976;7.034;2022-08-05T03:28:37;18.50;99.90
30459;DHT22;17254;50.976;7.034;2022-08-05T03:29:14;18.60;99.90
30459;DHT22;17254;50.976;7.034;2022-08-05T03:29:48;18.60;99.90
30459;DHT22;17254;50.976;7.034;2022-08-05T03:30:19;18.60;99.90
30459;DHT22;17254;50.976;7.034;2022-08-05T03:30:50;18.60;99.90
30459;DHT22;17254;50.976;7.034;2022-08-05T03:31:23;18.60;99.90
30459;DHT22;17254;50.976;7.034;2022-08-05T03:31:55;18.60;99.90
30459;DHT22;17254;50.976;7.034;2022-08-05T03:32:26;18.70;99.90
30459;DHT22;17254;50.976;7.034;2022-08-05T03:32:59;18.60;99.90